createdAt,value
2018-07-10T00:00:02.342Z,18.61
2018-07-10T00:01:02.420Z,18.54
2018-07-10T00:02:02.439Z,18.50
2018-07-10T00:03:02.500Z,18.49
2018-07-10T00:04:02.542Z,18.55
2018-07-10T00:05:02.593Z,18.55
2018-07-10T00:06:02.677Z,18.42
2018-07-10T00:07:02.690Z,18.36
2018-07-10T00:08:02.746Z,18.34
2018-07-10T00:09:02.794Z,18.40
2018-07-10T00:10:02.846Z,18.39
2018-07-10T00:11:03.183Z,18.34
2018-07-10T00:12:02.944Z,18.42
2018-07-10T00:13:03.015Z,18.36
2018-07-10T00:14:03.043Z,18.31
2018-07-10T00:15:03.094Z,18.33
2018-07-10T00:16:03.146Z,18.25
2018-07-10T00:17:03.222Z,18.12
2018-07-10T00:18:03.269Z,18.15
2018-07-10T00:19:03.299Z,18.03
2018-07-10T00:20:03.349Z,17.99
2018-07-10T00:21:03.399Z,18.00
2018-07-10T00:22:03.448Z,17.99
2018-07-10T00:23:03.520Z,18.02
2018-07-10T00:24:03.550Z,17.99
2018-07-10T00:25:03.600Z,18.00
2018-07-10T00:26:03.648Z,17.97
2018-07-10T00:27:03.701Z,18.03
2018-07-10T00:28:03.774Z,17.99
2018-07-10T00:29:03.801Z,18.06
2018-07-10T00:30:03.850Z,17.95
2018-07-10T00:31:03.899Z,18.03
2018-07-10T00:32:03.949Z,17.95
2018-07-10T00:33:04.022Z,18.03
2018-07-10T00:34:04.052Z,18.02
2018-07-10T00:35:04.100Z,17.97
2018-07-10T00:36:04.153Z,17.95
2018-07-10T00:37:04.201Z,17.95
2018-07-10T00:38:04.280Z,17.82
2018-07-10T00:39:04.302Z,17.88
2018-07-10T00:40:04.351Z,17.88
2018-07-10T00:41:04.409Z,17.91
2018-07-10T00:42:04.452Z,17.91
2018-07-10T00:43:04.528Z,17.78
2018-07-10T00:44:04.588Z,17.85
2018-07-10T00:45:05.153Z,17.81
2018-07-10T00:46:04.653Z,17.85
2018-07-10T00:47:04.703Z,17.71
2018-07-10T00:48:04.755Z,17.87
2018-07-10T00:49:04.827Z,17.78
2018-07-10T00:50:04.853Z,17.79
2018-07-10T00:51:04.904Z,17.82
2018-07-10T00:52:04.960Z,17.78
2018-07-10T00:53:05.044Z,17.81
2018-07-10T00:54:05.053Z,17.79
2018-07-10T00:55:05.110Z,17.81
2018-07-10T00:56:05.159Z,17.79
2018-07-10T00:57:05.206Z,17.76
2018-07-10T00:58:05.277Z,17.84
2018-07-10T00:59:05.331Z,17.74
2018-07-10T01:00:05.358Z,17.71
2018-07-10T01:01:05.405Z,17.67
2018-07-10T01:02:05.460Z,17.67
2018-07-10T01:03:05.507Z,17.67
2018-07-10T01:04:05.584Z,17.63
2018-07-10T01:05:05.606Z,17.69
2018-07-10T01:06:05.658Z,17.66
2018-07-10T01:07:05.708Z,17.67
2018-07-10T01:08:05.756Z,17.67
2018-07-10T01:09:05.843Z,17.66
2018-07-10T01:10:05.855Z,17.70
2018-07-10T01:11:05.906Z,17.66
2018-07-10T01:12:05.968Z,17.69
2018-07-10T01:13:06.010Z,17.71
2018-07-10T01:14:06.087Z,17.69
2018-07-10T01:15:06.111Z,17.71
2018-07-10T01:16:06.155Z,17.73
2018-07-10T01:17:06.206Z,17.73
2018-07-10T01:18:06.255Z,17.71
2018-07-10T01:19:06.332Z,17.73
2018-07-10T01:20:06.386Z,17.73
2018-07-10T01:21:06.407Z,17.76
2018-07-10T01:22:06.457Z,17.73
2018-07-10T01:23:06.507Z,17.71
2018-07-10T01:24:06.556Z,17.70
2018-07-10T01:25:06.632Z,17.70
2018-07-10T01:26:06.659Z,17.66
2018-07-10T01:27:06.709Z,17.67
2018-07-10T01:28:06.757Z,17.67
2018-07-10T01:29:06.806Z,17.64
2018-07-10T01:30:06.882Z,17.59
2018-07-10T01:31:06.911Z,17.55
2018-07-10T01:32:06.958Z,17.54
2018-07-10T01:33:07.014Z,17.54
2018-07-10T01:34:07.061Z,17.54
2018-07-10T01:35:07.142Z,17.46
2018-07-10T01:36:07.161Z,17.51
2018-07-10T01:37:07.213Z,17.48
2018-07-10T01:38:07.262Z,17.50
2018-07-10T01:39:07.307Z,17.44
2018-07-10T01:40:07.387Z,17.44
2018-07-10T01:41:07.406Z,17.33
2018-07-10T01:42:07.457Z,17.38
2018-07-10T01:43:07.509Z,17.26
2018-07-10T01:44:08.165Z,17.26
2018-07-10T01:45:07.629Z,17.22
2018-07-10T01:46:07.658Z,17.22
2018-07-10T01:47:07.730Z,17.26
2018-07-10T01:48:07.761Z,17.23
2018-07-10T01:49:07.848Z,17.18
2018-07-10T01:50:07.856Z,17.23
2018-07-10T01:51:07.930Z,17.14
2018-07-10T01:52:07.985Z,17.25
2018-07-10T01:53:08.010Z,17.15
2018-07-10T01:54:08.057Z,17.18
2018-07-10T01:55:08.107Z,17.15
2018-07-10T01:56:08.157Z,17.14
2018-07-10T01:57:08.231Z,17.15
2018-07-10T01:58:08.256Z,17.15
2018-07-10T01:59:08.306Z,17.14
2018-07-10T02:00:08.359Z,17.13
2018-07-10T02:01:08.409Z,17.14
2018-07-10T02:02:08.479Z,17.17
2018-07-10T02:03:08.508Z,17.07
2018-07-10T02:04:08.558Z,17.08
2018-07-10T02:05:08.607Z,17.06
2018-07-10T02:06:08.655Z,17.06
2018-07-10T02:07:08.730Z,17.08
2018-07-10T02:08:08.784Z,17.00
2018-07-10T02:09:08.806Z,17.04
2018-07-10T02:10:08.858Z,17.03
2018-07-10T02:11:08.912Z,16.98
2018-07-10T02:12:08.957Z,16.92
2018-07-10T02:13:09.044Z,16.95
2018-07-10T02:14:09.076Z,16.96
2018-07-10T02:15:09.107Z,16.92
2018-07-10T02:16:09.161Z,16.89
2018-07-10T02:17:09.204Z,16.96
2018-07-10T02:18:09.291Z,16.89
2018-07-10T02:19:09.309Z,16.85
2018-07-10T02:20:09.355Z,16.90
2018-07-10T02:21:09.405Z,16.92
2018-07-10T02:22:09.458Z,16.88
2018-07-10T02:23:09.538Z,16.89
2018-07-10T02:24:09.553Z,16.88
2018-07-10T02:25:09.606Z,16.96
2018-07-10T02:26:09.673Z,16.92
2018-07-10T02:27:09.703Z,16.86
2018-07-10T02:28:09.777Z,16.88
2018-07-10T02:29:09.828Z,16.88
2018-07-10T02:30:09.856Z,16.89
2018-07-10T02:31:09.904Z,16.88
2018-07-10T02:32:09.955Z,16.95
2018-07-10T02:33:10.007Z,16.81
2018-07-10T02:34:10.078Z,16.85
2018-07-10T02:35:10.104Z,16.92
2018-07-10T02:36:10.152Z,16.88
2018-07-10T02:37:10.201Z,16.88
2018-07-10T02:38:10.263Z,16.78
2018-07-10T02:39:10.325Z,16.89
2018-07-10T02:40:10.356Z,16.90
2018-07-10T02:41:10.404Z,16.80
2018-07-10T02:42:10.451Z,16.89
2018-07-10T02:43:10.500Z,16.89
2018-07-10T02:44:10.590Z,16.88
2018-07-10T02:45:10.601Z,16.96
2018-07-10T02:46:10.650Z,17.04
2018-07-10T02:47:10.700Z,17.03
2018-07-10T02:48:10.754Z,17.10
2018-07-10T02:49:10.825Z,17.03
2018-07-10T02:50:10.850Z,17.04
2018-07-10T02:51:10.922Z,17.07
2018-07-10T02:52:10.949Z,17.07
2018-07-10T02:53:11.007Z,17.07
2018-07-10T02:54:11.049Z,17.03
2018-07-10T02:55:11.100Z,17.04
2018-07-10T02:56:11.172Z,17.07
2018-07-10T02:57:11.202Z,17.06
2018-07-10T02:58:11.250Z,17.13
2018-07-10T02:59:11.297Z,17.08
2018-07-10T03:00:11.348Z,17.15
2018-07-10T03:01:11.420Z,17.15
2018-07-10T03:02:11.447Z,17.18
2018-07-10T03:03:11.497Z,17.11
2018-07-10T03:04:11.548Z,17.18
2018-07-10T03:05:11.601Z,17.15
2018-07-10T03:06:11.681Z,17.15
2018-07-10T03:07:11.699Z,17.15
2018-07-10T03:08:11.748Z,17.18
2018-07-10T03:09:11.797Z,17.11
2018-07-10T03:10:11.850Z,17.00
2018-07-10T03:11:11.919Z,17.04
2018-07-10T03:12:11.976Z,16.99
2018-07-10T03:13:12.004Z,16.98
2018-07-10T03:14:12.047Z,17.06
2018-07-10T03:15:12.100Z,17.04
2018-07-10T03:16:12.146Z,17.04
2018-07-10T03:17:12.220Z,16.99
2018-07-10T03:18:12.248Z,17.07
2018-07-10T03:19:12.295Z,17.07
2018-07-10T03:20:12.349Z,17.03
2018-07-10T03:21:12.394Z,17.03
2018-07-10T03:22:12.479Z,17.04
2018-07-10T03:23:12.494Z,17.06
2018-07-10T03:24:12.545Z,16.98
2018-07-10T03:25:12.596Z,16.99
2018-07-10T03:26:12.644Z,17.07
2018-07-10T03:27:12.718Z,17.03
2018-07-10T03:28:12.767Z,17.06
2018-07-10T03:29:12.794Z,17.03
2018-07-10T03:30:12.844Z,17.10
2018-07-10T03:31:12.898Z,17.08
2018-07-10T03:32:12.945Z,17.15
2018-07-10T03:33:13.018Z,17.10
2018-07-10T03:34:13.043Z,17.06
2018-07-10T03:35:13.098Z,17.03
2018-07-10T03:36:13.142Z,17.08
2018-07-10T03:37:13.218Z,17.13
2018-07-10T03:38:13.272Z,17.10
2018-07-10T03:39:13.292Z,17.11
2018-07-10T03:40:13.346Z,17.14
2018-07-10T03:41:13.391Z,17.15
2018-07-10T03:42:13.467Z,17.11
2018-07-10T03:43:13.517Z,17.15
2018-07-10T03:44:13.543Z,17.15
2018-07-10T03:45:13.596Z,17.23
2018-07-10T03:46:13.641Z,17.11
2018-07-10T03:47:13.691Z,17.17
2018-07-10T03:48:13.771Z,17.17
2018-07-10T03:49:13.791Z,17.20
2018-07-10T03:50:13.840Z,17.13
2018-07-10T03:51:13.891Z,17.11
2018-07-10T03:52:13.941Z,17.18
2018-07-10T03:53:14.015Z,17.25
2018-07-10T03:54:14.041Z,17.28
2018-07-10T03:55:14.097Z,17.13
2018-07-10T03:56:14.140Z,17.11
2018-07-10T03:57:14.190Z,17.18
2018-07-10T03:58:14.335Z,17.14
2018-07-10T03:59:14.290Z,17.13
2018-07-10T04:00:14.342Z,17.17
2018-07-10T04:01:14.391Z,17.13
2018-07-10T04:02:14.444Z,17.17
2018-07-10T04:03:14.514Z,17.10
2018-07-10T04:04:14.569Z,17.14
2018-07-10T04:05:14.591Z,17.13
2018-07-10T04:06:14.638Z,17.14
2018-07-10T04:07:14.691Z,17.18
2018-07-10T04:08:14.740Z,17.20
2018-07-10T04:09:14.825Z,17.28
2018-07-10T04:10:14.840Z,17.26
2018-07-10T04:11:14.896Z,17.29
2018-07-10T04:12:14.939Z,17.32
2018-07-10T04:13:14.990Z,17.26
2018-07-10T04:14:15.062Z,17.35
2018-07-10T04:15:15.092Z,17.43
2018-07-10T04:16:15.139Z,17.41
2018-07-10T04:17:15.189Z,17.41
2018-07-10T04:18:15.262Z,17.43
2018-07-10T04:19:15.291Z,17.41
2018-07-10T04:20:15.361Z,17.40
2018-07-10T04:21:15.388Z,17.43
2018-07-10T04:22:15.438Z,17.43
2018-07-10T04:23:15.519Z,17.50
2018-07-10T04:24:15.543Z,17.47
2018-07-10T04:25:15.620Z,17.47
2018-07-10T04:26:15.639Z,17.44
2018-07-10T04:27:15.688Z,17.41
2018-07-10T04:28:15.742Z,17.47
2018-07-10T04:29:15.787Z,17.44
2018-07-10T04:30:15.866Z,17.51
2018-07-10T04:31:15.891Z,17.46
2018-07-10T04:32:15.938Z,17.53
2018-07-10T04:33:15.987Z,17.51
2018-07-10T04:34:16.072Z,17.50
2018-07-10T04:35:16.088Z,17.54
2018-07-10T04:36:16.144Z,17.50
2018-07-10T04:37:16.190Z,17.54
2018-07-10T04:38:16.239Z,17.53
2018-07-10T04:39:16.310Z,17.38
2018-07-10T04:40:16.338Z,17.36
2018-07-10T04:41:16.412Z,17.44
2018-07-10T04:42:16.479Z,17.36
2018-07-10T04:43:16.490Z,17.38
2018-07-10T04:44:16.542Z,17.54
2018-07-10T04:45:16.612Z,17.50
2018-07-10T04:46:16.639Z,17.54
2018-07-10T04:47:16.697Z,17.63
2018-07-10T04:48:16.739Z,17.64
2018-07-10T04:49:16.837Z,17.63
2018-07-10T04:50:16.868Z,17.71
2018-07-10T04:51:16.889Z,17.73
2018-07-10T04:52:16.965Z,17.79
2018-07-10T04:53:16.989Z,17.79
2018-07-10T04:54:17.039Z,17.91
2018-07-10T04:55:17.114Z,17.89
2018-07-10T04:56:17.139Z,17.82
2018-07-10T04:57:17.190Z,17.97
2018-07-10T04:58:17.263Z,17.87
2018-07-10T04:59:17.292Z,17.99
2018-07-10T05:00:17.340Z,17.92
2018-07-10T05:01:17.434Z,17.99
2018-07-10T05:02:17.441Z,17.99
2018-07-10T05:03:17.516Z,18.03
2018-07-10T05:04:17.540Z,17.87
2018-07-10T05:05:17.592Z,18.00
2018-07-10T05:06:17.641Z,17.95
2018-07-10T05:07:17.745Z,18.02
2018-07-10T05:08:17.771Z,17.99
2018-07-10T05:09:17.790Z,18.06
2018-07-10T05:10:17.847Z,18.13
2018-07-10T05:11:17.895Z,18.10
2018-07-10T05:12:17.943Z,18.15
2018-07-10T05:13:18.017Z,18.12
2018-07-10T05:14:18.043Z,18.24
2018-07-10T05:15:18.094Z,18.25
2018-07-10T05:16:18.147Z,18.24
2018-07-10T05:17:18.194Z,18.29
2018-07-10T05:18:18.273Z,18.36
2018-07-10T05:19:18.297Z,18.37
2018-07-10T05:20:18.345Z,18.40
2018-07-10T05:21:18.428Z,18.34
2018-07-10T05:22:18.447Z,18.46
2018-07-10T05:23:18.520Z,18.47
2018-07-10T05:24:18.547Z,18.50
2018-07-10T05:25:18.595Z,18.54
2018-07-10T05:26:18.649Z,18.57
2018-07-10T05:27:18.724Z,18.62
2018-07-10T05:28:18.751Z,18.67
2018-07-10T05:29:18.819Z,18.59
2018-07-10T05:30:18.850Z,18.72
2018-07-10T05:31:18.905Z,18.76
2018-07-10T05:32:18.974Z,18.77
2018-07-10T05:33:19.721Z,18.79
2018-07-10T05:34:19.076Z,18.83
2018-07-10T05:35:19.105Z,18.77
2018-07-10T05:36:19.154Z,18.73
2018-07-10T05:37:19.268Z,18.80
2018-07-10T05:38:19.254Z,18.76
2018-07-10T05:39:19.328Z,18.79
2018-07-10T05:40:19.354Z,18.74
2018-07-10T05:41:19.406Z,18.83
2018-07-10T05:42:19.457Z,18.80
2018-07-10T05:43:19.510Z,18.84
2018-07-10T05:44:19.588Z,18.82
2018-07-10T05:45:19.608Z,18.83
2018-07-10T05:46:19.696Z,18.79
2018-07-10T05:47:19.710Z,18.70
2018-07-10T05:48:19.760Z,18.80
2018-07-10T05:49:19.833Z,18.83
2018-07-10T05:50:19.865Z,18.87
2018-07-10T05:51:19.910Z,18.83
2018-07-10T05:52:19.964Z,18.83
2018-07-10T05:53:20.014Z,18.80
2018-07-10T05:54:20.093Z,18.90
2018-07-10T05:55:20.117Z,18.80
2018-07-10T05:56:20.165Z,18.84
2018-07-10T05:57:20.214Z,18.84
2018-07-10T05:58:20.320Z,18.91
2018-07-10T05:59:20.346Z,18.82
2018-07-10T06:00:20.370Z,18.92
2018-07-10T06:01:20.417Z,18.91
2018-07-10T06:02:20.468Z,18.91
2018-07-10T06:03:20.522Z,19.05
2018-07-10T06:04:20.593Z,19.08
2018-07-10T06:05:20.622Z,19.14
2018-07-10T06:06:20.671Z,19.05
2018-07-10T06:07:20.722Z,19.13
2018-07-10T06:08:20.771Z,19.18
2018-07-10T06:09:20.845Z,19.23
2018-07-10T06:10:20.887Z,19.24
2018-07-10T06:11:20.928Z,19.32
2018-07-10T06:12:20.976Z,19.42
2018-07-10T06:13:21.026Z,19.53
2018-07-10T06:14:21.099Z,19.57
2018-07-10T06:15:21.127Z,19.61
2018-07-10T06:16:21.216Z,19.69
2018-07-10T06:17:21.228Z,19.84
2018-07-10T06:18:21.279Z,19.97
2018-07-10T06:19:21.330Z,20.03
2018-07-10T06:20:21.410Z,19.94
2018-07-10T06:21:21.433Z,19.91
2018-07-10T06:22:21.512Z,19.97
2018-07-10T06:23:21.534Z,20.06
2018-07-10T06:24:21.585Z,20.06
2018-07-10T06:25:21.665Z,20.06
2018-07-10T06:26:21.687Z,20.12
2018-07-10T06:27:21.745Z,20.16
2018-07-10T06:28:21.791Z,20.24
2018-07-10T06:29:21.842Z,20.23
2018-07-10T06:30:21.938Z,20.34
2018-07-10T06:31:21.944Z,20.28
2018-07-10T06:32:22.017Z,20.50
2018-07-10T06:33:22.043Z,20.51
2018-07-10T06:34:22.098Z,20.58
2018-07-10T06:35:22.156Z,20.65
2018-07-10T06:36:22.199Z,20.66
2018-07-10T06:37:22.272Z,20.79
2018-07-10T06:38:22.302Z,20.87
2018-07-10T06:39:22.352Z,20.89
2018-07-10T06:40:22.403Z,20.87
2018-07-10T06:41:22.458Z,20.96
2018-07-10T06:42:22.543Z,20.91
2018-07-10T06:43:22.562Z,20.95
2018-07-10T06:44:23.442Z,20.95
2018-07-10T06:45:22.660Z,20.98
2018-07-10T06:46:22.710Z,20.96
2018-07-10T06:47:22.787Z,21.11
2018-07-10T06:48:22.815Z,21.24
2018-07-10T06:49:22.868Z,21.42
2018-07-10T06:50:22.917Z,21.59
2018-07-10T06:51:22.969Z,21.92
2018-07-10T06:52:23.144Z,22.17
2018-07-10T06:53:23.389Z,22.57
2018-07-10T06:54:23.125Z,22.89
2018-07-10T06:55:23.177Z,23.24
2018-07-10T06:56:23.229Z,23.67
2018-07-10T06:57:23.307Z,23.85
2018-07-10T06:58:23.333Z,24.31
2018-07-10T06:59:23.409Z,24.63
2018-07-10T07:00:23.438Z,24.27
2018-07-10T07:01:23.492Z,23.90
2018-07-10T07:02:23.568Z,23.65
2018-07-10T07:03:23.603Z,23.39
2018-07-10T07:04:34.295Z,23.11
2018-07-10T07:05:23.702Z,22.99
2018-07-10T07:06:23.756Z,22.78
2018-07-10T07:07:23.808Z,22.69
2018-07-10T07:08:23.860Z,22.67
2018-07-10T07:09:23.912Z,22.54
2018-07-10T07:10:23.990Z,22.39
2018-07-10T07:11:24.021Z,22.39
2018-07-10T07:12:24.071Z,22.67
2018-07-10T07:13:24.122Z,22.84
2018-07-10T07:14:24.187Z,23.29
2018-07-10T07:15:24.253Z,23.94
2018-07-10T07:16:24.285Z,24.14
2018-07-10T07:17:24.334Z,24.34
2018-07-10T07:18:24.391Z,24.75
2018-07-10T07:19:24.443Z,24.54
2018-07-10T07:20:24.788Z,24.39
2018-07-10T07:21:24.552Z,24.12
2018-07-10T07:22:24.600Z,24.32
2018-07-10T07:23:24.658Z,24.27
2018-07-10T07:24:24.712Z,24.12
2018-07-10T07:25:24.787Z,24.08
2018-07-10T07:26:24.819Z,24.01
2018-07-10T07:27:24.867Z,23.90
2018-07-10T07:28:24.922Z,23.90
2018-07-10T07:29:25.044Z,23.76
2018-07-10T07:30:25.071Z,23.75
2018-07-10T07:31:25.081Z,23.64
2018-07-10T07:32:25.141Z,23.55
2018-07-10T07:33:25.189Z,23.40
2018-07-10T07:34:25.244Z,23.26
2018-07-10T07:35:25.343Z,23.23
2018-07-10T07:36:25.353Z,23.11
2018-07-10T07:37:25.403Z,23.05
2018-07-10T07:38:25.459Z,23.09
2018-07-10T07:39:25.514Z,22.84
2018-07-10T07:40:25.590Z,22.77
2018-07-10T07:41:25.615Z,22.77
2018-07-10T07:42:25.672Z,22.74
2018-07-10T07:43:25.750Z,22.71
2018-07-10T07:44:25.876Z,22.52
2018-07-10T07:45:25.828Z,22.43
2018-07-10T07:46:25.884Z,22.34
2018-07-10T07:47:25.941Z,22.28
2018-07-10T07:48:26.022Z,22.38
2018-07-10T07:49:26.042Z,22.41
2018-07-10T07:50:26.097Z,22.37
2018-07-10T07:51:26.148Z,22.46
2018-07-10T07:52:26.207Z,22.47
2018-07-10T07:53:26.281Z,22.54
2018-07-10T07:54:26.338Z,22.56
2018-07-10T07:55:26.369Z,22.57
2018-07-10T07:56:26.414Z,22.74
2018-07-10T07:57:26.469Z,22.92
2018-07-10T07:58:26.526Z,23.05
2018-07-10T07:59:26.597Z,23.08
2018-07-10T08:00:26.664Z,23.05
2018-07-10T08:01:26.679Z,22.96
2018-07-10T08:02:26.736Z,23.01
2018-07-10T08:03:26.818Z,23.22
2018-07-10T08:04:26.863Z,23.46
2018-07-10T08:05:26.929Z,23.40
2018-07-10T08:06:26.955Z,23.64
2018-07-10T08:07:27.002Z,23.98
2018-07-10T08:08:27.056Z,24.00
2018-07-10T08:09:27.108Z,24.08
2018-07-10T08:10:27.184Z,24.37
2018-07-10T08:11:27.213Z,24.38
2018-07-10T08:12:27.267Z,24.16
2018-07-10T08:13:27.321Z,24.01
2018-07-10T08:14:27.376Z,24.05
2018-07-10T08:15:27.453Z,24.04
2018-07-10T08:16:27.481Z,24.02
2018-07-10T08:17:27.535Z,24.02
2018-07-10T08:18:27.586Z,24.10
2018-07-10T08:19:27.641Z,24.02
2018-07-10T08:20:27.734Z,23.95
2018-07-10T08:21:27.750Z,23.90
2018-07-10T08:22:27.801Z,23.87
2018-07-10T08:23:27.856Z,23.75
2018-07-10T08:24:27.938Z,23.67
2018-07-10T08:25:27.997Z,23.87
2018-07-10T08:26:28.019Z,23.86
2018-07-10T08:27:28.080Z,23.79
2018-07-10T08:28:28.136Z,23.77
2018-07-10T08:29:28.180Z,23.71
2018-07-10T08:30:28.265Z,23.75
2018-07-10T08:31:28.289Z,23.62
2018-07-10T08:32:28.342Z,23.47
2018-07-10T08:33:28.437Z,23.22
2018-07-10T08:34:28.448Z,23.01
2018-07-10T08:35:28.535Z,22.80
2018-07-10T08:36:28.581Z,22.72
2018-07-10T08:37:28.613Z,22.54
2018-07-10T08:38:28.665Z,22.57
2018-07-10T08:39:28.720Z,22.62
2018-07-10T08:40:28.771Z,22.62
2018-07-10T08:41:28.849Z,22.37
2018-07-10T08:42:28.880Z,22.44
2018-07-10T08:43:28.934Z,22.43
2018-07-10T08:44:28.992Z,22.43
2018-07-10T08:45:29.038Z,22.60
2018-07-10T08:46:29.122Z,22.72
2018-07-10T08:47:29.155Z,22.77
2018-07-10T08:48:29.206Z,22.89
2018-07-10T08:49:29.252Z,22.94
2018-07-10T08:50:29.309Z,22.97
2018-07-10T08:51:29.393Z,23.04
2018-07-10T08:52:29.419Z,22.87
2018-07-10T08:53:29.466Z,23.01
2018-07-10T08:54:29.524Z,22.80
2018-07-10T08:55:29.574Z,22.74
2018-07-10T08:56:29.655Z,22.86
2018-07-10T08:57:29.679Z,22.99
2018-07-10T08:58:29.733Z,23.17
2018-07-10T08:59:29.789Z,23.46
2018-07-10T09:00:30.496Z,23.61
2018-07-10T09:01:29.929Z,23.55
2018-07-10T09:02:29.977Z,23.50
2018-07-10T09:03:30.006Z,23.61
2018-07-10T09:04:30.056Z,23.70
2018-07-10T09:05:30.112Z,23.90
2018-07-10T09:06:30.166Z,24.13
2018-07-10T09:07:30.241Z,24.24
2018-07-10T09:08:30.275Z,24.45
2018-07-10T09:09:30.323Z,24.52
2018-07-10T09:10:30.376Z,24.54
2018-07-10T09:11:30.431Z,24.47
2018-07-10T09:12:30.513Z,24.45
2018-07-10T09:13:30.560Z,24.49
2018-07-10T09:14:30.594Z,24.49
2018-07-10T09:15:30.649Z,24.49
2018-07-10T09:16:30.709Z,24.52
2018-07-10T09:17:30.780Z,24.52
2018-07-10T09:18:30.833Z,24.47
2018-07-10T09:19:30.870Z,24.39
2018-07-10T09:20:30.924Z,24.29
2018-07-10T09:21:30.977Z,23.89
2018-07-10T09:22:31.052Z,23.77
2018-07-10T09:23:31.085Z,23.57
2018-07-10T09:24:31.159Z,23.45
2018-07-10T09:25:31.193Z,23.61
2018-07-10T09:26:31.247Z,23.75
2018-07-10T09:27:31.298Z,23.75
2018-07-10T09:28:31.376Z,23.65
2018-07-10T09:29:31.406Z,23.70
2018-07-10T09:30:31.486Z,23.52
2018-07-10T09:31:31.514Z,23.43
2018-07-10T09:32:32.007Z,23.32
2018-07-10T09:33:31.709Z,23.24
2018-07-10T09:34:31.677Z,23.26
2018-07-10T09:35:31.733Z,23.24
2018-07-10T09:36:31.786Z,22.94
2018-07-10T09:37:31.840Z,22.75
2018-07-10T09:38:31.929Z,22.74
2018-07-10T09:39:31.947Z,22.64
2018-07-10T09:40:32.531Z,22.67
2018-07-10T09:41:32.053Z,22.68
2018-07-10T09:42:32.106Z,22.65
2018-07-10T09:43:32.189Z,22.62
2018-07-10T09:44:32.214Z,22.62
2018-07-10T09:45:32.267Z,22.65
2018-07-10T09:46:32.322Z,22.68
2018-07-10T09:47:32.376Z,22.80
2018-07-10T09:48:32.457Z,22.74
2018-07-10T09:49:32.479Z,22.78
2018-07-10T09:50:32.533Z,22.90
2018-07-10T09:51:32.589Z,22.94
2018-07-10T09:52:32.640Z,23.05
2018-07-10T09:53:32.724Z,23.14
2018-07-10T09:54:32.744Z,22.97
2018-07-10T09:55:32.799Z,22.89
2018-07-10T09:56:32.886Z,22.92
2018-07-10T09:57:32.907Z,22.94
2018-07-10T09:58:32.963Z,23.07
2018-07-10T09:59:33.044Z,23.09
2018-07-10T10:00:33.066Z,23.26
2018-07-10T10:01:33.117Z,23.32
2018-07-10T10:02:33.177Z,23.32
2018-07-10T10:03:33.235Z,23.35
2018-07-10T10:04:33.312Z,23.24
2018-07-10T10:05:33.358Z,23.26
2018-07-10T10:06:33.388Z,23.34
2018-07-10T10:07:33.440Z,23.47
2018-07-10T10:08:33.496Z,23.47
2018-07-10T10:09:33.585Z,23.57
2018-07-10T10:10:33.600Z,23.58
2018-07-10T10:11:33.654Z,23.68
2018-07-10T10:12:33.709Z,23.67
2018-07-10T10:13:33.760Z,23.67
2018-07-10T10:14:33.846Z,23.68
2018-07-10T10:15:33.870Z,23.70
2018-07-10T10:16:33.924Z,23.67
2018-07-10T10:17:33.975Z,23.49
2018-07-10T10:18:34.033Z,23.47
2018-07-10T10:19:34.105Z,23.47
2018-07-10T10:20:34.137Z,23.43
2018-07-10T10:21:34.213Z,23.42
2018-07-10T10:22:34.247Z,23.50
2018-07-10T10:23:34.300Z,23.47
2018-07-10T10:24:34.353Z,23.47
2018-07-10T10:25:34.405Z,23.43
2018-07-10T10:26:34.488Z,23.38
2018-07-10T10:27:34.514Z,23.31
2018-07-10T10:28:34.569Z,23.38
2018-07-10T10:29:34.622Z,23.40
2018-07-10T10:30:34.676Z,23.65
2018-07-10T10:31:34.770Z,23.79
2018-07-10T10:32:34.782Z,23.89
2018-07-10T10:33:34.839Z,23.90
2018-07-10T10:34:34.888Z,24.04
2018-07-10T10:35:35.000Z,24.12
2018-07-10T10:36:35.028Z,24.14
2018-07-10T10:37:35.051Z,24.16
2018-07-10T10:38:35.105Z,24.04
2018-07-10T10:39:35.162Z,23.97
2018-07-10T10:40:35.212Z,23.87
2018-07-10T10:41:35.370Z,23.94
2018-07-10T10:42:35.322Z,23.86
2018-07-10T10:43:35.375Z,23.89
2018-07-10T10:44:35.434Z,23.75
2018-07-10T10:45:35.481Z,23.76
2018-07-10T10:46:35.560Z,23.68
2018-07-10T10:47:35.625Z,23.58
2018-07-10T10:48:35.644Z,23.76
2018-07-10T10:49:35.701Z,23.75
2018-07-10T10:50:35.751Z,23.76
2018-07-10T10:51:35.805Z,23.87
2018-07-10T10:52:35.882Z,23.95
2018-07-10T10:53:35.936Z,24.08
2018-07-10T10:54:35.967Z,24.23
2018-07-10T10:55:36.040Z,24.24
2018-07-10T10:56:36.076Z,24.22
2018-07-10T10:57:36.129Z,24.22
2018-07-10T10:58:36.209Z,24.27
2018-07-10T10:59:36.254Z,24.12
2018-07-10T11:00:36.291Z,24.20
2018-07-10T11:01:36.345Z,24.38
2018-07-10T11:02:36.453Z,24.41
2018-07-10T11:03:36.479Z,24.53
2018-07-10T11:04:36.509Z,24.69
2018-07-10T11:05:36.564Z,24.61
2018-07-10T11:06:36.616Z,24.67
2018-07-10T11:07:36.675Z,24.64
2018-07-10T11:08:36.751Z,24.52
2018-07-10T11:09:36.780Z,24.38
2018-07-10T11:10:36.837Z,24.23
2018-07-10T11:11:36.888Z,24.17
2018-07-10T11:12:36.942Z,24.29
2018-07-10T11:13:37.020Z,24.29
2018-07-10T11:14:37.089Z,24.19
2018-07-10T11:15:37.106Z,24.12
2018-07-10T11:16:37.172Z,23.89
2018-07-10T11:17:37.220Z,23.97
2018-07-10T11:18:37.273Z,24.02
2018-07-10T11:19:37.349Z,23.92
2018-07-10T11:20:37.378Z,23.92
2018-07-10T11:21:37.433Z,23.79
2018-07-10T11:22:37.495Z,23.67
2018-07-10T11:23:37.563Z,23.72
2018-07-10T11:24:37.595Z,23.71
2018-07-10T11:25:37.676Z,23.82
2018-07-10T11:26:37.707Z,23.80
2018-07-10T11:27:37.757Z,23.82
2018-07-10T11:28:37.838Z,23.95
2018-07-10T11:29:37.867Z,24.01
2018-07-10T11:30:37.942Z,24.10
2018-07-10T11:31:37.975Z,24.05
2018-07-10T11:32:38.031Z,24.07
2018-07-10T11:33:38.082Z,24.02
2018-07-10T11:34:38.136Z,23.98
2018-07-10T11:35:38.227Z,23.98
2018-07-10T11:36:38.248Z,24.07
2018-07-10T11:37:38.300Z,24.14
2018-07-10T11:38:38.358Z,24.20
2018-07-10T11:39:38.410Z,24.42
2018-07-10T11:40:38.483Z,24.82
2018-07-10T11:41:38.516Z,25.27
2018-07-10T11:42:38.570Z,25.39
2018-07-10T11:43:38.627Z,25.57
2018-07-10T11:44:38.679Z,25.79
2018-07-10T11:45:38.812Z,25.94
2018-07-10T11:46:38.821Z,26.22
2018-07-10T11:47:38.846Z,26.32
2018-07-10T11:48:38.900Z,26.58
2018-07-10T11:49:38.953Z,26.89
2018-07-10T11:50:39.016Z,27.10
2018-07-10T11:51:39.096Z,27.19
2018-07-10T11:52:39.122Z,27.23
2018-07-10T11:53:39.179Z,27.17
2018-07-10T11:54:39.234Z,27.23
2018-07-10T11:55:39.295Z,26.89
2018-07-10T11:56:39.374Z,26.86
2018-07-10T11:57:39.403Z,26.77
2018-07-10T11:58:39.458Z,26.76
2018-07-10T11:59:39.520Z,26.91
2018-07-10T12:00:39.590Z,26.86
2018-07-10T12:01:39.654Z,27.05
2018-07-10T12:02:39.712Z,27.05
2018-07-10T12:03:39.748Z,27.09
2018-07-10T12:04:39.800Z,27.05
2018-07-10T12:05:39.858Z,26.92
2018-07-10T12:06:39.954Z,26.96
2018-07-10T12:07:39.973Z,26.98
2018-07-10T12:08:40.029Z,26.99
2018-07-10T12:09:40.109Z,26.89
2018-07-10T12:10:40.143Z,27.02
2018-07-10T12:11:40.231Z,27.05
2018-07-10T12:12:40.263Z,27.04
2018-07-10T12:13:40.318Z,26.96
2018-07-10T12:14:40.877Z,27.04
2018-07-10T12:15:40.431Z,26.96
2018-07-10T12:16:40.513Z,27.01
2018-07-10T12:17:40.546Z,27.02
2018-07-10T12:18:40.631Z,27.14
2018-07-10T12:19:40.662Z,27.20
2018-07-10T12:20:40.732Z,27.32
2018-07-10T12:21:40.804Z,27.32
2018-07-10T12:22:40.833Z,27.24
2018-07-10T12:23:40.916Z,27.13
2018-07-10T12:24:40.948Z,26.98
2018-07-10T12:25:41.011Z,26.61
2018-07-10T12:26:41.070Z,26.65
2018-07-10T12:27:41.123Z,26.46
2018-07-10T12:28:41.205Z,26.57
2018-07-10T12:29:41.266Z,26.40
2018-07-10T12:30:41.292Z,26.22
2018-07-10T12:31:41.354Z,25.86
2018-07-10T12:32:41.408Z,25.91
2018-07-10T12:33:41.469Z,25.97
2018-07-10T12:34:41.561Z,26.09
2018-07-10T12:35:41.585Z,26.24
2018-07-10T12:36:41.639Z,26.36
2018-07-10T12:37:41.703Z,26.05
2018-07-10T12:38:41.756Z,25.71
2018-07-10T12:39:41.839Z,25.69
2018-07-10T12:40:41.865Z,25.67
2018-07-10T12:41:41.994Z,25.84
2018-07-10T12:42:41.982Z,25.82
2018-07-10T12:43:42.050Z,25.89
2018-07-10T12:44:42.120Z,25.69
2018-07-10T12:45:42.171Z,25.62
2018-07-10T12:46:42.229Z,25.86
2018-07-10T12:47:42.285Z,26.11
2018-07-10T12:48:42.321Z,26.28
2018-07-10T12:49:42.376Z,26.22
2018-07-10T12:50:42.457Z,25.98
2018-07-10T12:51:42.489Z,25.82
2018-07-10T12:52:42.545Z,25.94